sensor_id;sensor_type;location;lat;lon;timestamp;pressure;altitude;pressure_sealevel;temperature;humidity
31585;BME280;18191;51.288;12.390;2023-02-27T00:01:06;49173.94;;;-144.47;81.98
31585;BME280;18191;51.288;12.390;2023-02-27T00:05:56;49183.91;;;-144.47;82.58
31585;BME280;18191;51.288;12.390;2023-02-27T00:10:47;49124.22;;;-144.47;83.00
31585;BME280;18191;51.288;12.390;2023-02-27T00:15:37;49124.22;;;-144.47;83.87
31585;BME280;18191;51.288;12.390;2023-02-27T00:20:29;49160.03;;;-144.47;83.78
31585;BME280;18191;51.288;12.390;2023-02-27T00:25:21;49144.09;;;-144.47;83.84
31585;BME280;18191;51.288;12.390;2023-02-27T00:30:12;49187.88;;;-144.47;83.88
31585;BME280;18191;51.288;12.390;2023-02-27T00:35:03;49134.16;;;-144.47;83.96
31585;BME280;18191;51.288;12.390;2023-02-27T00:39:53;49122.22;;;-144.47;84.38
31585;BME280;18191;51.288;12.390;2023-02-27T00:44:44;49219.72;;;-144.47;84.41
31585;BME280;18191;51.288;12.390;2023-02-27T00:49:34;49148.09;;;-144.47;84.18
31585;BME280;18191;51.288;12.390;2023-02-27T00:54:24;49173.94;;;-144.47;84.67
31585;BME280;18191;51.288;12.390;2023-02-27T00:59:14;49154.06;;;-144.47;84.85
31585;BME280;18191;51.288;12.390;2023-02-27T01:04:05;49100.34;;;-144.47;85.05
31585;BME280;18191;51.288;12.390;2023-02-27T01:08:55;49144.09;;;-144.47;85.14
31585;BME280;18191;51.288;12.390;2023-02-27T01:13:45;49160.03;;;-144.47;85.37
31585;BME280;18191;51.288;12.390;2023-02-27T01:18:35;49134.16;;;-144.47;85.65
31585;BME280;18191;51.288;12.390;2023-02-27T01:23:25;49160.03;;;-144.47;85.52
31585;BME280;18191;51.288;12.390;2023-02-27T01:28:16;49164.00;;;-144.47;86.05
31585;BME280;18191;51.288;12.390;2023-02-27T01:33:06;49164.00;;;-144.47;86.07
31585;BME280;18191;51.288;12.390;2023-02-27T01:37:56;49152.06;;;-144.47;86.03
31585;BME280;18191;51.288;12.390;2023-02-27T01:42:46;49187.88;;;-144.47;86.52
31585;BME280;18191;51.288;12.390;2023-02-27T01:47:44;49179.91;;;-144.47;85.54
31585;BME280;18191;51.288;12.390;2023-02-27T01:52:36;49171.97;;;-144.47;85.14
31585;BME280;18191;51.288;12.390;2023-02-27T01:57:27;49144.09;;;-144.47;84.53
31585;BME280;18191;51.288;12.390;2023-02-27T02:02:23;49136.16;;;-144.47;84.07
31585;BME280;18191;51.288;12.390;2023-02-27T02:07:14;49116.25;;;-144.47;83.85
31585;BME280;18191;51.288;12.390;2023-02-27T02:12:05;49140.13;;;-144.47;83.56
31585;BME280;18191;51.288;12.390;2023-02-27T02:17:00;49114.28;;;-144.47;83.41
31585;BME280;18191;51.288;12.390;2023-02-27T02:22:01;49144.09;;;-144.47;83.42
31585;BME280;18191;51.288;12.390;2023-02-27T02:27:02;49140.13;;;-144.47;82.69
31585;BME280;18191;51.288;12.390;2023-02-27T02:32:02;49164.00;;;-144.47;82.37
31585;BME280;18191;51.288;12.390;2023-02-27T02:42:15;49152.06;;;-144.47;82.43
31585;BME280;18191;51.288;12.390;2023-02-27T02:47:21;49140.13;;;-144.47;81.97
31585;BME280;18191;51.288;12.390;2023-02-27T02:52:19;49160.03;;;-144.47;81.31
31585;BME280;18191;51.288;12.390;2023-02-27T02:57:34;49167.97;;;-144.47;81.19
31585;BME280;18191;51.288;12.390;2023-02-27T03:02:27;49124.22;;;-144.47;80.82
31585;BME280;18191;51.288;12.390;2023-02-27T03:07:29;49114.28;;;-144.47;80.28
31585;BME280;18191;51.288;12.390;2023-02-27T03:12:21;49136.16;;;-144.47;80.28
31585;BME280;18191;51.288;12.390;2023-02-27T03:17:35;49128.19;;;-144.47;80.01
31585;BME280;18191;51.288;12.390;2023-02-27T03:22:27;49136.16;;;-144.47;77.24
31585;BME280;18191;51.288;12.390;2023-02-27T03:27:20;49128.19;;;-144.47;76.38
31585;BME280;18191;51.288;12.390;2023-02-27T03:32:19;49136.16;;;-144.47;75.52
31585;BME280;18191;51.288;12.390;2023-02-27T03:37:17;49138.16;;;-144.47;75.46
31585;BME280;18191;51.288;12.390;2023-02-27T03:42:13;49144.09;;;-144.47;74.22
31585;BME280;18191;51.288;12.390;2023-02-27T03:47:07;49128.19;;;-144.47;74.85
31585;BME280;18191;51.288;12.390;2023-02-27T03:51:57;49130.19;;;-144.47;74.37
31585;BME280;18191;51.288;12.390;2023-02-27T03:56:55;49118.25;;;-144.47;73.63
31585;BME280;18191;51.288;12.390;2023-02-27T04:01:47;49156.03;;;-144.47;74.58
31585;BME280;18191;51.288;12.390;2023-02-27T04:06:38;49140.13;;;-144.47;74.40
31585;BME280;18191;51.288;12.390;2023-02-27T04:21:43;49128.19;;;-144.47;75.38
31585;BME280;18191;51.288;12.390;2023-02-27T04:26:41;49110.28;;;-144.47;75.52
31585;BME280;18191;51.288;12.390;2023-02-27T04:31:40;49128.19;;;-144.47;76.17
31585;BME280;18191;51.288;12.390;2023-02-27T04:36:40;49173.94;;;-144.47;76.42
31585;BME280;18191;51.288;12.390;2023-02-27T04:41:33;49086.41;;;-144.47;77.37
31585;BME280;18191;51.288;12.390;2023-02-27T04:46:25;49124.22;;;-144.47;77.42
31585;BME280;18191;51.288;12.390;2023-02-27T04:51:17;49152.06;;;-144.47;77.51
31585;BME280;18191;51.288;12.390;2023-02-27T04:56:10;49142.13;;;-144.47;77.69
31585;BME280;18191;51.288;12.390;2023-02-27T05:01:13;49116.25;;;-144.47;77.65
31585;BME280;18191;51.288;12.390;2023-02-27T05:06:07;49164.00;;;-144.47;78.17
31585;BME280;18191;51.288;12.390;2023-02-27T05:15:56;49146.09;;;-144.47;79.03
31585;BME280;18191;51.288;12.390;2023-02-27T05:25:59;49132.16;;;-144.47;78.63
31585;BME280;18191;51.288;12.390;2023-02-27T05:30:58;49108.31;;;-144.47;78.87
31585;BME280;18191;51.288;12.390;2023-02-27T05:35:55;49146.09;;;-144.47;80.09
31585;BME280;18191;51.288;12.390;2023-02-27T05:40:51;49177.94;;;-144.47;80.37
31585;BME280;18191;51.288;12.390;2023-02-27T05:45:43;49134.16;;;-144.47;80.77
31585;BME280;18191;51.288;12.390;2023-02-27T05:50:36;49150.06;;;-144.47;81.05
31585;BME280;18191;51.288;12.390;2023-02-27T05:55:29;49144.09;;;-144.47;82.52
31585;BME280;18191;51.288;12.390;2023-02-27T06:05:20;49094.38;;;-144.47;82.42
31585;BME280;18191;51.288;12.390;2023-02-27T06:10:16;49160.03;;;-144.47;82.69
31585;BME280;18191;51.288;12.390;2023-02-27T06:15:06;49171.97;;;-144.47;82.80
31585;BME280;18191;51.288;12.390;2023-02-27T06:19:57;49152.06;;;-144.47;82.63
31585;BME280;18191;51.288;12.390;2023-02-27T06:24:47;49152.06;;;-144.47;82.28
31585;BME280;18191;51.288;12.390;2023-02-27T06:29:37;49160.03;;;-144.47;83.17
31585;BME280;18191;51.288;12.390;2023-02-27T06:34:27;49160.03;;;-144.47;83.46
31585;BME280;18191;51.288;12.390;2023-02-27T06:39:17;49164.00;;;-144.47;82.71
31585;BME280;18191;51.288;12.390;2023-02-27T06:44:08;49138.16;;;-144.47;82.65
31585;BME280;18191;51.288;12.390;2023-02-27T06:48:58;49144.09;;;-144.47;82.48
31585;BME280;18191;51.288;12.390;2023-02-27T06:53:48;49136.16;;;-144.47;81.92
31585;BME280;18191;51.288;12.390;2023-02-27T06:58:38;49152.06;;;-144.47;81.38
31585;BME280;18191;51.288;12.390;2023-02-27T07:03:28;49100.34;;;-144.47;80.59
31585;BME280;18191;51.288;12.390;2023-02-27T07:08:18;49128.19;;;-144.47;79.25
31585;BME280;18191;51.288;12.390;2023-02-27T07:13:09;49169.97;;;-144.47;77.97
31585;BME280;18191;51.288;12.390;2023-02-27T07:17:59;49100.34;;;-144.47;77.67
31585;BME280;18191;51.288;12.390;2023-02-27T07:22:49;49136.16;;;-144.47;75.99
31585;BME280;18191;51.288;12.390;2023-02-27T07:27:39;49124.22;;;-144.47;73.64
31585;BME280;18191;51.288;12.390;2023-02-27T07:32:30;49104.31;;;-144.47;72.42
31585;BME280;18191;51.288;12.390;2023-02-27T07:37:20;49098.34;;;-144.47;70.43
31585;BME280;18191;51.288;12.390;2023-02-27T07:42:10;49118.25;;;-144.47;71.20
31585;BME280;18191;51.288;12.390;2023-02-27T07:47:01;49164.00;;;-144.47;70.64
31585;BME280;18191;51.288;12.390;2023-02-27T07:51:51;49112.28;;;-144.47;70.17
31585;BME280;18191;51.288;12.390;2023-02-27T07:56:41;49116.25;;;-144.47;70.66
31585;BME280;18191;51.288;12.390;2023-02-27T08:01:31;49144.09;;;-144.47;70.67
31585;BME280;18191;51.288;12.390;2023-02-27T08:06:22;49082.44;;;-144.47;67.44
31585;BME280;18191;51.288;12.390;2023-02-27T08:11:12;49104.31;;;-144.47;67.03
31585;BME280;18191;51.288;12.390;2023-02-27T08:16:02;49100.34;;;-144.47;67.78
31585;BME280;18191;51.288;12.390;2023-02-27T08:20:56;49098.34;;;-144.47;68.21
31585;BME280;18191;51.288;12.390;2023-02-27T08:25:46;49128.19;;;-144.47;66.99
31585;BME280;18191;51.288;12.390;2023-02-27T08:30:36;49116.25;;;-144.47;66.83
31585;BME280;18191;51.288;12.390;2023-02-27T08:35:26;49136.16;;;-144.47;65.98
31585;BME280;18191;51.288;12.390;2023-02-27T08:40:17;49098.34;;;-144.47;65.43
31585;BME280;18191;51.288;12.390;2023-02-27T08:45:07;49080.44;;;-144.47;63.68
31585;BME280;18191;51.288;12.390;2023-02-27T08:49:58;49126.22;;;-144.47;63.21
31585;BME280;18191;51.288;12.390;2023-02-27T08:54:48;49102.34;;;-144.47;64.32
31585;BME280;18191;51.288;12.390;2023-02-27T08:59:38;49144.09;;;-144.47;63.02
31585;BME280;18191;51.288;12.390;2023-02-27T09:04:28;49112.28;;;-144.47;63.54
31585;BME280;18191;51.288;12.390;2023-02-27T09:09:19;49108.31;;;-144.47;63.38
31585;BME280;18191;51.288;12.390;2023-02-27T09:14:09;49116.25;;;-144.47;62.28
31585;BME280;18191;51.288;12.390;2023-02-27T09:18:59;49100.34;;;-144.47;62.52
31585;BME280;18191;51.288;12.390;2023-02-27T09:23:50;49100.34;;;-144.47;61.06
31585;BME280;18191;51.288;12.390;2023-02-27T09:28:40;49096.38;;;-144.47;61.50
31585;BME280;18191;51.288;12.390;2023-02-27T09:33:31;49076.47;;;-144.47;61.82
31585;BME280;18191;51.288;12.390;2023-02-27T09:38:21;49104.31;;;-144.47;61.87
31585;BME280;18191;51.288;12.390;2023-02-27T09:43:14;49088.41;;;-144.47;60.13
31585;BME280;18191;51.288;12.390;2023-02-27T09:48:12;49108.31;;;-144.47;59.85
31585;BME280;18191;51.288;12.390;2023-02-27T09:53:05;49088.41;;;-144.47;59.73
31585;BME280;18191;51.288;12.390;2023-02-27T10:22:59;49086.41;;;-144.47;56.59
31585;BME280;18191;51.288;12.390;2023-02-27T10:27:52;49076.47;;;-144.47;56.23
31585;BME280;18191;51.288;12.390;2023-02-27T10:32:44;49124.22;;;-144.47;54.06
31585;BME280;18191;51.288;12.390;2023-02-27T10:37:36;49074.47;;;-144.47;55.63
31585;BME280;18191;51.288;12.390;2023-02-27T10:42:31;49084.44;;;-144.47;54.39
31585;BME280;18191;51.288;12.390;2023-02-27T10:47:22;49080.44;;;-144.47;55.90
31585;BME280;18191;51.288;12.390;2023-02-27T10:52:14;49096.38;;;-144.47;53.61
31585;BME280;18191;51.288;12.390;2023-02-27T10:57:17;49054.59;;;-144.47;53.71
31585;BME280;18191;51.288;12.390;2023-02-27T11:07:10;49068.50;;;-144.47;55.08
31585;BME280;18191;51.288;12.390;2023-02-27T11:17:29;49080.44;;;-144.47;52.22
31585;BME280;18191;51.288;12.390;2023-02-27T11:22:22;49068.50;;;-144.47;51.15
31585;BME280;18191;51.288;12.390;2023-02-27T11:32:11;49058.56;;;-144.47;53.62
31585;BME280;18191;51.288;12.390;2023-02-27T11:37:03;49126.22;;;-144.47;52.20
31585;BME280;18191;51.288;12.390;2023-02-27T11:41:55;49086.41;;;-144.47;50.69
31585;BME280;18191;51.288;12.390;2023-02-27T11:46:46;49062.56;;;-144.47;49.90
31585;BME280;18191;51.288;12.390;2023-02-27T12:01:37;49104.31;;;-144.47;50.48
31585;BME280;18191;51.288;12.390;2023-02-27T12:06:37;49072.50;;;-144.47;51.54
31585;BME280;18191;51.288;12.390;2023-02-27T12:11:43;49100.34;;;-144.47;47.45
31585;BME280;18191;51.288;12.390;2023-02-27T12:16:39;49100.34;;;-144.47;49.93
31585;BME280;18191;51.288;12.390;2023-02-27T12:21:32;49074.47;;;-144.47;46.38
31585;BME280;18191;51.288;12.390;2023-02-27T12:26:26;49080.44;;;-144.47;44.77
31585;BME280;18191;51.288;12.390;2023-02-27T12:36:09;49052.59;;;-144.47;45.12
31585;BME280;18191;51.288;12.390;2023-02-27T12:41:22;49108.31;;;-144.47;45.78
31585;BME280;18191;51.288;12.390;2023-02-27T12:46:27;49080.44;;;-144.47;50.11
31585;BME280;18191;51.288;12.390;2023-02-27T12:56:21;49100.34;;;-144.47;51.88
31585;BME280;18191;51.288;12.390;2023-02-27T13:01:31;49084.44;;;-144.47;50.73
31585;BME280;18191;51.288;12.390;2023-02-27T13:06:35;49060.56;;;-144.47;53.61
31585;BME280;18191;51.288;12.390;2023-02-27T13:11:47;49068.50;;;-144.47;52.21
31585;BME280;18191;51.288;12.390;2023-02-27T13:16:42;49050.63;;;-144.47;52.71
31585;BME280;18191;51.288;12.390;2023-02-27T13:21:37;49052.59;;;-144.47;52.51
31585;BME280;18191;51.288;12.390;2023-02-27T13:26:30;49108.31;;;-144.47;53.65
31585;BME280;18191;51.288;12.390;2023-02-27T13:31:29;49060.56;;;-144.47;51.22
31585;BME280;18191;51.288;12.390;2023-02-27T13:36:26;49092.38;;;-144.47;50.04
31585;BME280;18191;51.288;12.390;2023-02-27T13:46:24;49096.38;;;-144.47;50.43
31585;BME280;18191;51.288;12.390;2023-02-27T13:56:23;49088.41;;;-144.47;49.51
31585;BME280;18191;51.288;12.390;2023-02-27T14:01:15;49076.47;;;-144.47;51.26
31585;BME280;18191;51.288;12.390;2023-02-27T14:06:06;49060.56;;;-144.47;47.15
31585;BME280;18191;51.288;12.390;2023-02-27T14:11:02;49084.44;;;-144.47;49.48
31585;BME280;18191;51.288;12.390;2023-02-27T14:16:00;49084.44;;;-144.47;48.23
31585;BME280;18191;51.288;12.390;2023-02-27T14:20:50;49132.16;;;-144.47;49.19
31585;BME280;18191;51.288;12.390;2023-02-27T14:25:44;49094.38;;;-144.47;48.94
31585;BME280;18191;51.288;12.390;2023-02-27T14:30:39;49080.44;;;-144.47;49.57
31585;BME280;18191;51.288;12.390;2023-02-27T14:35:34;49082.44;;;-144.47;45.62
31585;BME280;18191;51.288;12.390;2023-02-27T14:40:26;49100.34;;;-144.47;46.93
31585;BME280;18191;51.288;12.390;2023-02-27T14:45:19;49110.28;;;-144.47;46.91
31585;BME280;18191;51.288;12.390;2023-02-27T14:50:45;49072.50;;;-144.47;48.33
31585;BME280;18191;51.288;12.390;2023-02-27T14:55:35;49124.22;;;-144.47;52.05
31585;BME280;18191;51.288;12.390;2023-02-27T15:05:28;49098.34;;;-144.47;58.27
31585;BME280;18191;51.288;12.390;2023-02-27T15:10:25;49092.38;;;-144.47;57.46
31585;BME280;18191;51.288;12.390;2023-02-27T15:15:19;49086.41;;;-144.47;58.50
31585;BME280;18191;51.288;12.390;2023-02-27T15:30:20;49060.56;;;-144.47;56.18
31585;BME280;18191;51.288;12.390;2023-02-27T15:35:16;49104.31;;;-144.47;56.42
31585;BME280;18191;51.288;12.390;2023-02-27T15:40:09;49120.25;;;-144.47;56.56
31585;BME280;18191;51.288;12.390;2023-02-27T15:45:04;49070.50;;;-144.47;57.50
31585;BME280;18191;51.288;12.390;2023-02-27T15:50:00;49076.47;;;-144.47;57.72
31585;BME280;18191;51.288;12.390;2023-02-27T15:55:00;49080.44;;;-144.47;58.62
31585;BME280;18191;51.288;12.390;2023-02-27T15:59:50;49086.41;;;-144.47;58.13
31585;BME280;18191;51.288;12.390;2023-02-27T16:04:43;49104.31;;;-144.47;59.16
31585;BME280;18191;51.288;12.390;2023-02-27T16:09:34;49108.31;;;-144.47;60.34
31585;BME280;18191;51.288;12.390;2023-02-27T16:19:45;49100.34;;;-144.47;61.29
31585;BME280;18191;51.288;12.390;2023-02-27T16:24:35;49064.53;;;-144.47;59.66
31585;BME280;18191;51.288;12.390;2023-02-27T16:29:40;49092.38;;;-144.47;59.25
31585;BME280;18191;51.288;12.390;2023-02-27T16:39:24;49096.38;;;-144.47;56.11
31585;BME280;18191;51.288;12.390;2023-02-27T16:44:14;49096.38;;;-144.47;53.60
31585;BME280;18191;51.288;12.390;2023-02-27T16:49:08;49100.34;;;-144.47;54.03
31585;BME280;18191;51.288;12.390;2023-02-27T16:54:07;49094.38;;;-144.47;53.51
31585;BME280;18191;51.288;12.390;2023-02-27T16:59:00;49052.59;;;-144.47;51.36
31585;BME280;18191;51.288;12.390;2023-02-27T17:03:50;49096.38;;;-144.47;52.19
31585;BME280;18191;51.288;12.390;2023-02-27T17:08:42;49102.34;;;-144.47;52.46
31585;BME280;18191;51.288;12.390;2023-02-27T17:13:33;49088.41;;;-144.47;53.14
31585;BME280;18191;51.288;12.390;2023-02-27T17:18:25;49100.34;;;-144.47;53.38
31585;BME280;18191;51.288;12.390;2023-02-27T17:23:15;49088.41;;;-144.47;53.79
31585;BME280;18191;51.288;12.390;2023-02-27T17:28:05;49088.41;;;-144.47;54.48
31585;BME280;18191;51.288;12.390;2023-02-27T17:32:55;49100.34;;;-144.47;55.67
31585;BME280;18191;51.288;12.390;2023-02-27T17:37:46;49108.31;;;-144.47;55.97
31585;BME280;18191;51.288;12.390;2023-02-27T17:42:36;49072.50;;;-144.47;57.18
31585;BME280;18191;51.288;12.390;2023-02-27T17:47:28;49090.41;;;-144.47;58.66
31585;BME280;18191;51.288;12.390;2023-02-27T17:52:18;49094.38;;;-144.47;55.77
31585;BME280;18191;51.288;12.390;2023-02-27T17:57:08;49084.44;;;-144.47;56.62
31585;BME280;18191;51.288;12.390;2023-02-27T18:02:00;49100.34;;;-144.47;57.21
31585;BME280;18191;51.288;12.390;2023-02-27T18:06:51;49078.47;;;-144.47;59.02
31585;BME280;18191;51.288;12.390;2023-02-27T18:11:41;49084.44;;;-144.47;61.18
31585;BME280;18191;51.288;12.390;2023-02-27T18:16:31;49062.56;;;-144.47;61.65
31585;BME280;18191;51.288;12.390;2023-02-27T18:21:22;49092.38;;;-144.47;62.43
31585;BME280;18191;51.288;12.390;2023-02-27T18:26:14;49140.13;;;-144.47;65.14
31585;BME280;18191;51.288;12.390;2023-02-27T18:31:04;49072.50;;;-144.47;62.46
31585;BME280;18191;51.288;12.390;2023-02-27T18:35:54;49108.31;;;-144.47;62.13
31585;BME280;18191;51.288;12.390;2023-02-27T18:40:44;49104.31;;;-144.47;62.46
31585;BME280;18191;51.288;12.390;2023-02-27T18:45:35;49096.38;;;-144.47;61.21
31585;BME280;18191;51.288;12.390;2023-02-27T18:50:25;49092.38;;;-144.47;61.54
31585;BME280;18191;51.288;12.390;2023-02-27T18:55:16;49078.47;;;-144.47;62.20
31585;BME280;18191;51.288;12.390;2023-02-27T19:00:07;49076.47;;;-144.47;59.74
31585;BME280;18191;51.288;12.390;2023-02-27T19:04:59;49108.31;;;-144.47;61.56
31585;BME280;18191;51.288;12.390;2023-02-27T19:09:49;49060.56;;;-144.47;60.42
31585;BME280;18191;51.288;12.390;2023-02-27T19:14:40;49106.31;;;-144.47;60.76
31585;BME280;18191;51.288;12.390;2023-02-27T19:19:30;49076.47;;;-144.47;63.23
31585;BME280;18191;51.288;12.390;2023-02-27T19:24:20;49084.44;;;-144.47;64.75
31585;BME280;18191;51.288;12.390;2023-02-27T19:29:10;49088.41;;;-144.47;64.10
31585;BME280;18191;51.288;12.390;2023-02-27T19:34:01;49100.34;;;-144.47;65.55
31585;BME280;18191;51.288;12.390;2023-02-27T19:38:51;49084.44;;;-144.47;65.32
31585;BME280;18191;51.288;12.390;2023-02-27T19:43:41;49132.16;;;-144.47;67.30
31585;BME280;18191;51.288;12.390;2023-02-27T19:48:32;49108.31;;;-144.47;67.06
31585;BME280;18191;51.288;12.390;2023-02-27T19:53:22;49116.25;;;-144.47;68.04
31585;BME280;18191;51.288;12.390;2023-02-27T19:58:12;49100.34;;;-144.47;69.22
31585;BME280;18191;51.288;12.390;2023-02-27T20:03:02;49134.16;;;-144.47;69.02
31585;BME280;18191;51.288;12.390;2023-02-27T20:07:53;49060.56;;;-144.47;69.13
31585;BME280;18191;51.288;12.390;2023-02-27T20:12:43;49116.25;;;-144.47;70.10
31585;BME280;18191;51.288;12.390;2023-02-27T20:17:33;49116.25;;;-144.47;69.68
31585;BME280;18191;51.288;12.390;2023-02-27T20:22:24;49092.38;;;-144.47;69.49
31585;BME280;18191;51.288;12.390;2023-02-27T20:27:14;49116.25;;;-144.47;67.22
31585;BME280;18191;51.288;12.390;2023-02-27T20:32:04;49116.25;;;-144.47;68.51
31585;BME280;18191;51.288;12.390;2023-02-27T20:36:55;49146.09;;;-144.47;68.63
31585;BME280;18191;51.288;12.390;2023-02-27T20:41:46;49092.38;;;-144.47;68.66
31585;BME280;18191;51.288;12.390;2023-02-27T20:46:37;49164.00;;;-144.47;68.07
31585;BME280;18191;51.288;12.390;2023-02-27T20:51:29;49082.44;;;-144.47;67.90
31585;BME280;18191;51.288;12.390;2023-02-27T20:56:21;49100.34;;;-144.47;67.31
31585;BME280;18191;51.288;12.390;2023-02-27T21:01:12;49104.31;;;-144.47;67.44
31585;BME280;18191;51.288;12.390;2023-02-27T21:06:02;49080.44;;;-144.47;67.06
31585;BME280;18191;51.288;12.390;2023-02-27T21:10:52;49104.31;;;-144.47;66.60
31585;BME280;18191;51.288;12.390;2023-02-27T21:15:43;49104.31;;;-144.47;65.56
31585;BME280;18191;51.288;12.390;2023-02-27T21:20:33;49108.31;;;-144.47;66.26
31585;BME280;18191;51.288;12.390;2023-02-27T21:25:24;49150.06;;;-144.47;65.71
31585;BME280;18191;51.288;12.390;2023-02-27T21:30:14;49064.53;;;-144.47;66.06
31585;BME280;18191;51.288;12.390;2023-02-27T21:35:05;49160.03;;;-144.47;65.73
31585;BME280;18191;51.288;12.390;2023-02-27T21:39:55;49104.31;;;-144.47;66.05
31585;BME280;18191;51.288;12.390;2023-02-27T21:44:46;49096.38;;;-144.47;67.17
31585;BME280;18191;51.288;12.390;2023-02-27T21:49:36;49112.28;;;-144.47;66.22
31585;BME280;18191;51.288;12.390;2023-02-27T21:54:28;49114.28;;;-144.47;66.88
31585;BME280;18191;51.288;12.390;2023-02-27T21:59:18;49112.28;;;-144.47;66.74
31585;BME280;18191;51.288;12.390;2023-02-27T22:04:09;49114.28;;;-144.47;66.99
31585;BME280;18191;51.288;12.390;2023-02-27T22:08:59;49120.25;;;-144.47;66.60
31585;BME280;18191;51.288;12.390;2023-02-27T22:13:50;49104.31;;;-144.47;63.96
31585;BME280;18191;51.288;12.390;2023-02-27T22:18:40;49084.44;;;-144.47;64.46
31585;BME280;18191;51.288;12.390;2023-02-27T22:23:31;49134.16;;;-144.47;64.82
31585;BME280;18191;51.288;12.390;2023-02-27T22:28:21;49078.47;;;-144.47;65.83
31585;BME280;18191;51.288;12.390;2023-02-27T22:33:11;49076.47;;;-144.47;64.33
31585;BME280;18191;51.288;12.390;2023-02-27T22:38:02;49112.28;;;-144.47;64.98
31585;BME280;18191;51.288;12.390;2023-02-27T22:42:52;49108.31;;;-144.47;66.44
31585;BME280;18191;51.288;12.390;2023-02-27T22:47:42;49140.13;;;-144.47;65.15
31585;BME280;18191;51.288;12.390;2023-02-27T22:52:35;49104.31;;;-144.47;64.41
31585;BME280;18191;51.288;12.390;2023-02-27T22:57:26;49104.31;;;-144.47;63.75
31585;BME280;18191;51.288;12.390;2023-02-27T23:02:16;49118.25;;;-144.47;64.84
31585;BME280;18191;51.288;12.390;2023-02-27T23:07:06;49122.22;;;-144.47;64.92
31585;BME280;18191;51.288;12.390;2023-02-27T23:11:56;49110.28;;;-144.47;63.71
31585;BME280;18191;51.288;12.390;2023-02-27T23:16:47;49060.56;;;-144.47;64.36
31585;BME280;18191;51.288;12.390;2023-02-27T23:21:37;49108.31;;;-144.47;65.23
31585;BME280;18191;51.288;12.390;2023-02-27T23:26:29;49116.25;;;-144.47;65.40
31585;BME280;18191;51.288;12.390;2023-02-27T23:31:19;49088.41;;;-144.47;65.09
31585;BME280;18191;51.288;12.390;2023-02-27T23:36:09;49092.38;;;-144.47;65.22
31585;BME280;18191;51.288;12.390;2023-02-27T23:41:06;49132.16;;;-144.47;64.69
31585;BME280;18191;51.288;12.390;2023-02-27T23:45:56;49120.25;;;-144.47;64.86
31585;BME280;18191;51.288;12.390;2023-02-27T23:50:46;49094.38;;;-144.47;65.13
31585;BME280;18191;51.288;12.390;2023-02-27T23:55:37;49096.38;;;-144.47;66.62
